Time;durP1;ratioP1;P1;durP2;ratioP2;P2;SDS_P1;SDS_P2;PMS_P1;PMS_P2;Temp;Humidity;BMP_temperature;BMP_pressure;BME280_temperature;BME280_humidity;BME280_pressure;Samples;Min_cycle;Max_cycle;Signal;HPM_P1;HPM_P2
2022/07/21 00:03:56;;;;;;;13.35;4.65;;;;;;;;;;10436271;28;20108;-63
2022/07/21 00:08:56;;;;;;;9.70;4.78;;;;;;;;;;10442318;28;20221;-62
2022/07/21 00:13:58;;;;;;;16.23;4.90;;;;;;;;;;10445480;28;20052;-62
2022/07/21 00:18:59;;;;;;;19.15;4.90;;;;;;;;;;10446809;28;20241;-62
2022/07/21 00:24:00;;;;;;;23.25;5.57;;;;;;;;;;10446244;28;20394;-63
2022/07/21 00:29:00;;;;;;;10.30;4.93;;;;;;;;;;10435914;28;20029;-63
2022/07/21 00:34:01;;;;;;;12.63;5.20;;;;;;;;;;10440606;28;20592;-64
2022/07/21 00:39:02;;;;;;;13.75;5.30;;;;;;;;;;10445075;28;20036;-63
2022/07/21 00:44:02;;;;;;;12.80;4.97;;;;;;;;;;10448007;28;20469;-62
2022/07/21 00:49:03;;;;;;;8.32;4.72;;;;;;;;;;10445930;28;20033;-64
2022/07/21 00:54:04;;;;;;;18.50;5.15;;;;;;;;;;10447174;28;20116;-63
2022/07/21 00:59:05;;;;;;;10.00;5.10;;;;;;;;;;10444716;28;20025;-62
2022/07/21 01:04:05;;;;;;;11.68;5.05;;;;;;;;;;10446880;28;20025;-62
2022/07/21 01:09:06;;;;;;;9.63;4.95;;;;;;;;;;10449890;28;20116;-63
2022/07/21 01:14:07;;;;;;;11.27;5.68;;;;;;;;;;10455385;28;20071;-64
2022/07/21 01:19:07;;;;;;;9.23;5.05;;;;;;;;;;10451356;28;20095;-63
2022/07/21 01:24:09;;;;;;;10.05;5.93;;;;;;;;;;10424879;28;20114;-61
2022/07/21 01:29:11;;;;;;;9.55;5.10;;;;;;;;;;10449570;28;20116;-59
2022/07/21 01:34:12;;;;;;;10.93;5.65;;;;;;;;;;10453236;28;20489;-60
2022/07/21 01:44:33;;;;;;;12.70;5.30;;;;;;;;;;10446084;28;20064;-62
2022/07/21 01:49:33;;;;;;;14.65;5.47;;;;;;;;;;10447101;28;20033;-60
2022/07/21 01:54:34;;;;;;;12.75;5.57;;;;;;;;;;10452564;28;20534;-59
2022/07/21 01:59:35;;;;;;;15.57;5.22;;;;;;;;;;10449982;28;20025;-62
2022/07/21 02:04:35;;;;;;;13.88;5.40;;;;;;;;;;10452266;28;20048;-61
2022/07/21 02:09:36;;;;;;;12.00;6.28;;;;;;;;;;10446091;28;20473;-63
2022/07/21 02:14:37;;;;;;;11.00;5.55;;;;;;;;;;10452653;28;20040;-62
2022/07/21 02:19:37;;;;;;;10.48;5.53;;;;;;;;;;10451823;28;20392;-64
2022/07/21 02:24:39;;;;;;;12.80;5.55;;;;;;;;;;10452305;28;20056;-62
2022/07/21 02:29:40;;;;;;;7.40;5.38;;;;;;;;;;10448140;28;20319;-60
2022/07/21 02:34:41;;;;;;;9.60;5.47;;;;;;;;;;10452106;28;20648;-65
2022/07/21 02:39:41;;;;;;;11.60;5.75;;;;;;;;;;10448195;28;20037;-63
2022/07/21 02:44:42;;;;;;;9.63;5.03;;;;;;;;;;10451247;28;20032;-60
2022/07/21 02:49:44;;;;;;;16.23;5.45;;;;;;;;;;10451510;28;20029;-63
2022/07/21 02:54:45;;;;;;;15.40;6.10;;;;;;;;;;10449717;28;20052;-63
2022/07/21 02:59:46;;;;;;;7.60;5.20;;;;;;;;;;10442791;28;20036;-59
2022/07/21 03:04:46;;;;;;;15.07;5.43;;;;;;;;;;10450294;28;20013;-57
2022/07/21 03:09:47;;;;;;;10.50;5.40;;;;;;;;;;10449292;28;20496;-62
2022/07/21 03:14:47;;;;;;;8.25;5.20;;;;;;;;;;10448479;28;20040;-62
2022/07/21 03:19:48;;;;;;;13.38;6.15;;;;;;;;;;10451092;28;20021;-50
2022/07/21 03:24:50;;;;;;;11.15;5.65;;;;;;;;;;10447676;28;20044;-60
2022/07/21 03:29:51;;;;;;;21.42;5.80;;;;;;;;;;10450391;28;20078;-49
2022/07/21 03:34:52;;;;;;;11.13;5.85;;;;;;;;;;10447435;28;20545;-50
2022/07/21 03:39:53;;;;;;;11.35;5.53;;;;;;;;;;10432645;28;20103;-49
2022/07/21 03:44:53;;;;;;;9.30;5.38;;;;;;;;;;10440846;28;20039;-53
2022/07/21 03:49:54;;;;;;;19.30;5.55;;;;;;;;;;10450236;28;20036;-49
2022/07/21 03:55:07;;;;;;;14.18;5.40;;;;;;;;;;10445796;28;20045;-49
2022/07/21 04:00:22;;;;;;;12.10;5.63;;;;;;;;;;10449018;28;20904;-48
2022/07/21 04:05:23;;;;;;;12.60;5.45;;;;;;;;;;10439680;28;20031;-49
2022/07/21 04:10:29;;;;;;;14.02;5.82;;;;;;;;;;10441276;28;20086;-51
2022/07/21 04:15:31;;;;;;;14.85;5.57;;;;;;;;;;10435649;28;20029;-49
2022/07/21 04:20:33;;;;;;;7.60;5.00;;;;;;;;;;10448928;28;20496;-48
2022/07/21 04:25:35;;;;;;;16.27;5.38;;;;;;;;;;10445653;28;20531;-49
2022/07/21 04:30:35;;;;;;;13.07;5.47;;;;;;;;;;10448192;28;20064;-50
2022/07/21 04:35:36;;;;;;;15.75;5.60;;;;;;;;;;10439244;28;20120;-49
2022/07/21 04:40:37;;;;;;;15.05;5.43;;;;;;;;;;10448994;28;20143;-49
2022/07/21 04:45:37;;;;;;;15.40;5.43;;;;;;;;;;10444129;28;20033;-49
2022/07/21 04:50:38;;;;;;;11.10;5.60;;;;;;;;;;10447212;28;20534;-50
2022/07/21 04:55:38;;;;;;;12.45;6.22;;;;;;;;;;10446672;28;20500;-48
2022/07/21 05:00:39;;;;;;;18.80;11.82;;;;;;;;;;10442936;28;20022;-50
2022/07/21 05:05:40;;;;;;;19.85;9.27;;;;;;;;;;10440958;28;20568;-50
2022/07/21 05:10:40;;;;;;;13.07;8.43;;;;;;;;;;10439804;28;20408;-49
2022/07/21 05:15:41;;;;;;;17.80;8.80;;;;;;;;;;10446441;28;20029;-50
2022/07/21 05:20:42;;;;;;;16.58;7.30;;;;;;;;;;10440431;28;20025;-51
2022/07/21 05:25:42;;;;;;;21.65;6.70;;;;;;;;;;10455123;23;20053;-53
2022/07/21 05:30:43;;;;;;;17.27;6.43;;;;;;;;;;10436933;28;20033;-49
2022/07/21 05:35:46;;;;;;;12.70;6.63;;;;;;;;;;10411979;28;20436;-52
2022/07/21 05:40:48;;;;;;;13.85;6.00;;;;;;;;;;10398448;28;20036;-54
2022/07/21 05:45:48;;;;;;;13.75;6.38;;;;;;;;;;10402079;28;20037;-54
2022/07/21 05:50:49;;;;;;;59.40;7.28;;;;;;;;;;10399192;28;20450;-58
2022/07/21 05:55:49;;;;;;;26.90;6.18;;;;;;;;;;10403230;28;20092;-58
2022/07/21 06:01:09;;;;;;;14.52;5.53;;;;;;;;;;10409233;28;20041;-59
2022/07/21 06:06:18;;;;;;;23.45;6.78;;;;;;;;;;10398129;28;20030;-58
2022/07/21 06:11:20;;;;;;;22.83;6.15;;;;;;;;;;10379824;28;20493;-58
2022/07/21 06:16:20;;;;;;;39.85;7.22;;;;;;;;;;10377468;28;20132;-60
2022/07/21 06:21:21;;;;;;;38.67;6.55;;;;;;;;;;10403419;28;20087;-59
2022/07/21 06:26:22;;;;;;;21.92;6.28;;;;;;;;;;10379219;28;20502;-58
2022/07/21 06:31:22;;;;;;;22.60;5.70;;;;;;;;;;10400018;28;20033;-58
2022/07/21 06:36:23;;;;;;;23.23;5.70;;;;;;;;;;10405333;28;20397;-58
2022/07/21 06:41:23;;;;;;;22.15;5.43;;;;;;;;;;10401937;28;20029;-58
2022/07/21 06:46:24;;;;;;;16.58;5.00;;;;;;;;;;10406595;28;20032;-57
2022/07/21 06:51:25;;;;;;;24.65;5.38;;;;;;;;;;10410289;28;20025;-57
2022/07/21 06:56:26;;;;;;;15.32;4.95;;;;;;;;;;10397881;28;20187;-58
2022/07/21 07:01:26;;;;;;;16.33;4.85;;;;;;;;;;10409544;28;20025;-61
2022/07/21 07:06:27;;;;;;;19.33;4.78;;;;;;;;;;10401746;28;20025;-57
2022/07/21 07:11:28;;;;;;;11.10;4.40;;;;;;;;;;10402841;28;20075;-58
2022/07/21 07:16:28;;;;;;;12.55;4.65;;;;;;;;;;10398396;28;20493;-58
2022/07/21 07:21:29;;;;;;;9.82;4.10;;;;;;;;;;10403181;28;20026;-58
2022/07/21 07:26:29;;;;;;;9.15;3.70;;;;;;;;;;10407131;28;20334;-58
2022/07/21 07:31:30;;;;;;;8.95;4.00;;;;;;;;;;10405734;28;20052;-57
2022/07/21 07:36:31;;;;;;;7.68;3.95;;;;;;;;;;10386015;28;20115;-58
2022/07/21 07:41:32;;;;;;;10.18;4.07;;;;;;;;;;10398556;28;20035;-58
2022/07/21 07:46:33;;;;;;;12.15;4.20;;;;;;;;;;10399575;28;20037;-57
2022/07/21 07:51:33;;;;;;;9.07;3.85;;;;;;;;;;10402074;28;20037;-57
2022/07/21 07:56:34;;;;;;;7.05;3.78;;;;;;;;;;10406918;28;20026;-58
2022/07/21 08:01:34;;;;;;;6.75;4.15;;;;;;;;;;10396855;28;20518;-58
2022/07/21 08:06:35;;;;;;;7.80;3.90;;;;;;;;;;10404698;28;20041;-58
2022/07/21 08:11:36;;;;;;;6.50;3.88;;;;;;;;;;10402992;28;20484;-59
2022/07/21 08:16:36;;;;;;;5.65;4.07;;;;;;;;;;10400126;28;20045;-58
2022/07/21 08:21:37;;;;;;;9.27;4.00;;;;;;;;;;10386192;28;20029;-58
2022/07/21 08:26:38;;;;;;;5.40;3.58;;;;;;;;;;10385259;28;20162;-58
2022/07/21 08:31:38;;;;;;;18.77;4.32;;;;;;;;;;10398539;28;20499;-59
2022/07/21 08:36:39;;;;;;;27.13;5.20;;;;;;;;;;10406612;28;20382;-60
2022/07/21 08:41:41;;;;;;;31.70;4.75;;;;;;;;;;10400653;28;20484;-59
2022/07/21 08:46:42;;;;;;;25.80;4.55;;;;;;;;;;10400880;28;20128;-60
2022/07/21 08:51:43;;;;;;;25.40;4.50;;;;;;;;;;10401243;28;20029;-58
2022/07/21 08:56:43;;;;;;;10.43;3.50;;;;;;;;;;10393730;28;20033;-60
2022/07/21 09:01:44;;;;;;;16.20;4.15;;;;;;;;;;10406399;28;20385;-58
2022/07/21 09:06:58;;;;;;;7.07;3.47;;;;;;;;;;10385895;28;20039;-60
2022/07/21 09:12:00;;;;;;;12.40;3.50;;;;;;;;;;10373778;28;20034;-59
2022/07/21 09:17:04;;;;;;;6.78;2.92;;;;;;;;;;10396773;28;20025;-59
2022/07/21 09:22:12;;;;;;;16.15;3.80;;;;;;;;;;10391907;28;20029;-59
2022/07/21 09:27:24;;;;;;;7.28;2.90;;;;;;;;;;10366570;28;20361;-59
2022/07/21 09:32:31;;;;;;;11.02;3.20;;;;;;;;;;10394374;28;20022;-59
2022/07/21 09:37:33;;;;;;;10.90;3.10;;;;;;;;;;10406405;28;20030;-61
2022/07/21 09:42:37;;;;;;;18.48;3.53;;;;;;;;;;10391527;28;20041;-61
2022/07/21 09:47:42;;;;;;;9.65;3.10;;;;;;;;;;10406179;28;20030;-59
2022/07/21 09:52:45;;;;;;;10.95;3.38;;;;;;;;;;10399970;28;20064;-59
2022/07/21 09:57:46;;;;;;;8.40;3.22;;;;;;;;;;10409997;28;20029;-60
2022/07/21 10:02:48;;;;;;;13.15;3.50;;;;;;;;;;10410440;28;20037;-59
2022/07/21 10:07:49;;;;;;;17.92;3.30;;;;;;;;;;10399235;28;20807;-59
2022/07/21 10:12:50;;;;;;;11.15;3.00;;;;;;;;;;10408965;28;20034;-59
2022/07/21 10:17:55;;;;;;;10.18;2.88;;;;;;;;;;10411546;28;20025;-59
2022/07/21 10:23:34;;;;;;;5.45;2.72;;;;;;;;;;10400583;28;20052;-59
2022/07/21 10:28:35;;;;;;;18.45;4.13;;;;;;;;;;10409991;28;20052;-59
2022/07/21 10:33:45;;;;;;;21.15;3.75;;;;;;;;;;10407208;28;20025;-59
2022/07/21 10:38:46;;;;;;;15.35;4.00;;;;;;;;;;10398186;28;20030;-59
2022/07/21 10:43:46;;;;;;;9.15;2.95;;;;;;;;;;10382605;28;20038;-59
2022/07/21 10:48:47;;;;;;;10.98;3.72;;;;;;;;;;10381903;28;20359;-59
2022/07/21 10:54:19;;;;;;;8.48;3.25;;;;;;;;;;10383166;28;20531;-60
2022/07/21 10:59:19;;;;;;;8.75;3.50;;;;;;;;;;10388392;28;20026;-59
2022/07/21 11:04:21;;;;;;;6.93;3.15;;;;;;;;;;10390821;28;20424;-59
2022/07/21 11:09:22;;;;;;;9.48;3.38;;;;;;;;;;10404326;28;20025;-59
2022/07/21 11:14:42;;;;;;;12.13;3.50;;;;;;;;;;10382316;28;20029;-59
2022/07/21 11:19:49;;;;;;;7.47;3.05;;;;;;;;;;10394814;28;20031;-59
2022/07/21 11:25:07;;;;;;;8.63;3.50;;;;;;;;;;10382450;28;20052;-59
2022/07/21 11:30:09;;;;;;;38.05;5.03;;;;;;;;;;10379253;28;20034;-59
2022/07/21 11:35:13;;;;;;;58.60;6.47;;;;;;;;;;10391524;28;20512;-59
2022/07/21 11:40:19;;;;;;;32.50;5.47;;;;;;;;;;10404899;28;20048;-58
2022/07/21 11:45:25;;;;;;;32.20;5.70;;;;;;;;;;10380262;28;20439;-59
2022/07/21 11:50:27;;;;;;;34.73;5.60;;;;;;;;;;10389778;28;20038;-59
2022/07/21 11:55:29;;;;;;;23.75;5.50;;;;;;;;;;10403375;28;20634;-59
2022/07/21 12:00:30;;;;;;;19.90;6.07;;;;;;;;;;10392846;28;20121;-59
2022/07/21 12:05:30;;;;;;;21.45;4.70;;;;;;;;;;10400820;28;20025;-59
2022/07/21 12:10:31;;;;;;;13.95;4.93;;;;;;;;;;10376635;28;20033;-59
2022/07/21 12:15:35;;;;;;;12.23;4.90;;;;;;;;;;10387204;28;20558;-58
2022/07/21 12:20:39;;;;;;;14.25;5.22;;;;;;;;;;10387659;28;20038;-58
2022/07/21 12:25:40;;;;;;;9.35;4.68;;;;;;;;;;10384901;28;20585;-58
2022/07/21 12:30:49;;;;;;;13.05;4.32;;;;;;;;;;10387899;28;20033;-58
2022/07/21 12:36:07;;;;;;;10.20;4.72;;;;;;;;;;10395119;28;20481;-58
2022/07/21 12:41:12;;;;;;;8.68;4.68;;;;;;;;;;10381048;28;20036;-58
2022/07/21 12:46:16;;;;;;;10.55;4.18;;;;;;;;;;10388502;28;20032;-58
2022/07/21 12:51:20;;;;;;;12.27;4.63;;;;;;;;;;10391228;28;20032;-58
2022/07/21 12:56:30;;;;;;;10.32;4.20;;;;;;;;;;10387577;28;20034;-57
2022/07/21 13:01:32;;;;;;;8.73;4.25;;;;;;;;;;10400989;28;20061;-57
2022/07/21 13:06:33;;;;;;;7.63;4.40;;;;;;;;;;10398135;28;20030;-59
2022/07/21 13:11:33;;;;;;;10.85;4.57;;;;;;;;;;10396934;28;20045;-58
2022/07/21 13:16:34;;;;;;;12.32;4.40;;;;;;;;;;10408619;28;20451;-57
2022/07/21 13:21:34;;;;;;;9.18;4.50;;;;;;;;;;10405384;28;20042;-57
2022/07/21 13:26:35;;;;;;;11.45;4.10;;;;;;;;;;10364151;28;20124;-58
2022/07/21 13:31:36;;;;;;;8.63;4.38;;;;;;;;;;10362053;28;20557;-58
2022/07/21 13:36:38;;;;;;;7.25;3.80;;;;;;;;;;10362400;28;20038;-58
2022/07/21 13:41:40;;;;;;;7.30;4.13;;;;;;;;;;10357038;28;20319;-58
2022/07/21 13:46:40;;;;;;;8.27;4.05;;;;;;;;;;10371101;28;20030;-57
2022/07/21 13:51:41;;;;;;;7.95;4.03;;;;;;;;;;10358075;28;20466;-58
2022/07/21 13:56:43;;;;;;;8.93;4.07;;;;;;;;;;10356918;28;20425;-58
2022/07/21 14:01:44;;;;;;;8.55;3.90;;;;;;;;;;10358686;28;20033;-58
2022/07/21 14:06:47;;;;;;;4.45;3.53;;;;;;;;;;10347131;28;20038;-57
2022/07/21 14:11:48;;;;;;;8.85;3.80;;;;;;;;;;10353234;28;20025;-58
2022/07/21 14:16:49;;;;;;;7.20;4.03;;;;;;;;;;10357772;28;20026;-58
2022/07/21 14:21:50;;;;;;;11.60;4.35;;;;;;;;;;10368837;28;20026;-57
2022/07/21 14:26:51;;;;;;;7.90;4.35;;;;;;;;;;10398823;28;20057;-57
2022/07/21 14:31:51;;;;;;;10.10;4.30;;;;;;;;;;10399461;28;20060;-59
2022/07/21 14:36:52;;;;;;;5.75;4.05;;;;;;;;;;10408046;28;20123;-59
2022/07/21 14:41:52;;;;;;;12.15;3.60;;;;;;;;;;10399433;28;20030;-60
2022/07/21 14:46:53;;;;;;;87.10;8.75;;;;;;;;;;10397194;28;20313;-51
2022/07/21 14:51:54;;;;;;;38.92;6.63;;;;;;;;;;10384412;28;20367;-54
2022/07/21 14:56:54;;;;;;;44.42;6.38;;;;;;;;;;10386955;28;20045;-52
2022/07/21 15:02:01;;;;;;;33.80;5.63;;;;;;;;;;10391148;28;20382;-56
2022/07/21 15:07:02;;;;;;;22.60;5.93;;;;;;;;;;10394879;28;20537;-54
2022/07/21 15:12:03;;;;;;;19.60;4.95;;;;;;;;;;10386053;28;20064;-57
2022/07/21 15:17:04;;;;;;;13.90;5.18;;;;;;;;;;10407134;28;20037;-59
2022/07/21 15:22:05;;;;;;;13.15;4.72;;;;;;;;;;10398286;28;20116;-53
2022/07/21 15:27:06;;;;;;;14.82;4.90;;;;;;;;;;10401957;28;20569;-59
2022/07/21 15:32:06;;;;;;;9.27;4.40;;;;;;;;;;10403297;28;20029;-53
2022/07/21 15:37:07;;;;;;;16.90;5.20;;;;;;;;;;10395796;28;20109;-53
2022/07/21 15:42:09;;;;;;;10.43;4.50;;;;;;;;;;10392029;28;20037;-54
2022/07/21 15:47:10;;;;;;;11.93;4.53;;;;;;;;;;10402069;28;20120;-56
2022/07/21 15:52:11;;;;;;;8.27;4.78;;;;;;;;;;10401408;28;20025;-59
2022/07/21 15:57:11;;;;;;;10.90;4.90;;;;;;;;;;10401714;28;20439;-52
2022/07/21 16:02:15;;;;;;;15.23;4.68;;;;;;;;;;10401858;28;20604;-55
2022/07/21 16:07:16;;;;;;;7.05;4.20;;;;;;;;;;10400913;28;20033;-55
2022/07/21 16:12:16;;;;;;;8.43;4.57;;;;;;;;;;10398422;28;20025;-49
2022/07/21 16:17:17;;;;;;;8.30;4.50;;;;;;;;;;10407053;28;20437;-59
2022/07/21 16:22:18;;;;;;;7.65;4.35;;;;;;;;;;10397080;28;20611;-55
2022/07/21 16:27:20;;;;;;;11.23;4.45;;;;;;;;;;10396589;28;20516;-54
2022/07/21 16:32:21;;;;;;;8.60;4.47;;;;;;;;;;10397833;28;20021;-55
2022/07/21 16:37:21;;;;;;;5.93;4.00;;;;;;;;;;10406611;28;20025;-53
2022/07/21 16:42:22;;;;;;;11.10;4.25;;;;;;;;;;10406530;28;20403;-52
2022/07/21 16:47:22;;;;;;;10.55;3.92;;;;;;;;;;10388607;28;20183;-56
2022/07/21 16:52:23;;;;;;;7.78;4.15;;;;;;;;;;10406619;28;20029;-59
2022/07/21 16:57:23;;;;;;;10.57;4.07;;;;;;;;;;10392387;28;20037;-59
2022/07/21 17:02:24;;;;;;;9.07;3.72;;;;;;;;;;10379953;28;20041;-57
2022/07/21 17:07:25;;;;;;;5.07;3.80;;;;;;;;;;10370007;28;20028;-60
2022/07/21 17:12:25;;;;;;;7.32;3.92;;;;;;;;;;10371609;28;20025;-58
2022/07/21 17:17:26;;;;;;;4.25;3.80;;;;;;;;;;10386754;28;20109;-61
2022/07/21 17:22:26;;;;;;;10.27;4.20;;;;;;;;;;10378017;28;20029;-57
2022/07/21 17:27:27;;;;;;;8.60;4.38;;;;;;;;;;10383323;28;20506;-54
2022/07/21 17:32:28;;;;;;;8.07;4.38;;;;;;;;;;10377205;28;20064;-56
2022/07/21 17:37:28;;;;;;;12.18;4.47;;;;;;;;;;10372924;28;20453;-60
2022/07/21 17:42:29;;;;;;;7.60;4.15;;;;;;;;;;10373588;28;20137;-60
2022/07/21 17:47:29;;;;;;;8.07;4.72;;;;;;;;;;10371545;28;20060;-54
2022/07/21 17:52:31;;;;;;;6.15;4.03;;;;;;;;;;10401573;28;20038;-58
2022/07/21 18:02:51;;;;;;;10.43;4.97;;;;;;;;;;10399908;28;20033;-59
2022/07/21 18:07:52;;;;;;;8.50;4.30;;;;;;;;;;10395364;28;20038;-56
2022/07/21 18:12:53;;;;;;;6.28;4.57;;;;;;;;;;10401526;28;20029;-59
2022/07/21 18:17:53;;;;;;;14.20;4.53;;;;;;;;;;10407034;28;20056;-56
2022/07/21 18:22:54;;;;;;;7.70;4.20;;;;;;;;;;10400900;28;20518;-57
2022/07/21 18:27:55;;;;;;;9.15;4.70;;;;;;;;;;10401750;28;20034;-57
2022/07/21 18:32:55;;;;;;;7.22;4.72;;;;;;;;;;10401491;28;20029;-52
2022/07/21 18:37:56;;;;;;;9.55;4.88;;;;;;;;;;10400903;28;20037;-52
2022/07/21 18:42:58;;;;;;;8.48;4.72;;;;;;;;;;10391205;28;20258;-52
2022/07/21 18:47:59;;;;;;;8.30;4.75;;;;;;;;;;10388127;28;20030;-58
2022/07/21 18:53:00;;;;;;;9.20;4.40;;;;;;;;;;10385489;28;20462;-57
2022/07/21 18:58:00;;;;;;;7.55;4.60;;;;;;;;;;10411650;28;20017;-60
2022/07/21 19:03:01;;;;;;;10.00;4.10;;;;;;;;;;10405097;28;20033;-61
2022/07/21 19:08:02;;;;;;;9.23;4.40;;;;;;;;;;10391029;28;20478;-60
2022/07/21 19:13:02;;;;;;;10.43;4.50;;;;;;;;;;10398488;28;20049;-61
2022/07/21 19:18:03;;;;;;;7.38;4.40;;;;;;;;;;10401104;28;20276;-60
2022/07/21 19:23:04;;;;;;;12.15;4.40;;;;;;;;;;10397594;28;20179;-57
2022/07/21 19:28:05;;;;;;;10.10;5.20;;;;;;;;;;10409577;28;20385;-60
2022/07/21 19:33:05;;;;;;;10.00;4.50;;;;;;;;;;10407509;28;20037;-60
2022/07/21 19:38:06;;;;;;;7.60;4.72;;;;;;;;;;10407663;28;20033;-61
2022/07/21 19:43:07;;;;;;;10.52;4.85;;;;;;;;;;10405116;28;20250;-61
2022/07/21 19:48:07;;;;;;;16.33;4.70;;;;;;;;;;10405860;28;20619;-59
2022/07/21 19:53:08;;;;;;;5.60;4.40;;;;;;;;;;10408016;28;20112;-52
2022/07/21 19:58:09;;;;;;;8.73;4.63;;;;;;;;;;10404620;28;20021;-57
2022/07/21 20:03:09;;;;;;;8.30;4.38;;;;;;;;;;10406417;28;20027;-57
2022/07/21 20:08:10;;;;;;;4.82;3.97;;;;;;;;;;10406873;28;20018;-54
2022/07/21 20:13:11;;;;;;;6.30;4.70;;;;;;;;;;10401940;28;20036;-55
2022/07/21 20:18:13;;;;;;;18.30;4.38;;;;;;;;;;10402168;28;20385;-55
2022/07/21 20:23:14;;;;;;;16.02;4.80;;;;;;;;;;10391964;28;20045;-53
2022/07/21 20:28:14;;;;;;;12.00;4.80;;;;;;;;;;10399235;28;20029;-51
2022/07/21 20:33:15;;;;;;;12.57;5.70;;;;;;;;;;10406332;28;20025;-54
2022/07/21 20:38:16;;;;;;;22.52;5.70;;;;;;;;;;10389543;28;20025;-53
2022/07/21 20:43:16;;;;;;;26.42;5.13;;;;;;;;;;10407441;28;20041;-53
2022/07/21 20:48:17;;;;;;;14.77;5.30;;;;;;;;;;10406507;28;20060;-49
2022/07/21 20:53:17;;;;;;;13.35;5.30;;;;;;;;;;10407160;28;20021;-52
2022/07/21 20:58:18;;;;;;;12.73;4.80;;;;;;;;;;10397746;28;20037;-52
2022/07/21 21:03:19;;;;;;;10.38;5.43;;;;;;;;;;10407165;28;20017;-52
2022/07/21 21:08:19;;;;;;;10.70;5.32;;;;;;;;;;10406769;28;20037;-49
2022/07/21 21:13:20;;;;;;;13.43;4.93;;;;;;;;;;10393730;28;20060;-53
2022/07/21 21:18:21;;;;;;;17.02;5.55;;;;;;;;;;10393221;28;20112;-50
2022/07/21 21:23:22;;;;;;;15.95;5.80;;;;;;;;;;10387202;28;20773;-50
2022/07/21 21:28:22;;;;;;;12.77;5.25;;;;;;;;;;10402277;28;20025;-54
2022/07/21 21:33:23;;;;;;;23.52;5.68;;;;;;;;;;10396260;28;20472;-50
2022/07/21 21:38:23;;;;;;;15.18;5.53;;;;;;;;;;10390378;28;20030;-49
2022/07/21 21:43:24;;;;;;;16.90;5.80;;;;;;;;;;10387931;28;20104;-52
2022/07/21 21:48:25;;;;;;;20.40;5.88;;;;;;;;;;10387924;28;20515;-58
2022/07/21 21:53:26;;;;;;;21.42;5.50;;;;;;;;;;10396671;28;20057;-56
2022/07/21 21:58:27;;;;;;;32.80;6.35;;;;;;;;;;10393372;28;20026;-59
2022/07/21 22:03:27;;;;;;;12.80;5.35;;;;;;;;;;10379603;28;20485;-59
2022/07/21 22:08:28;;;;;;;13.45;4.55;;;;;;;;;;10387205;28;20034;-60
2022/07/21 22:13:29;;;;;;;15.38;5.38;;;;;;;;;;10385358;28;20030;-60
2022/07/21 22:18:29;;;;;;;11.98;5.07;;;;;;;;;;10388290;28;20052;-59
2022/07/21 22:23:30;;;;;;;8.40;4.78;;;;;;;;;;10383026;28;20497;-59
2022/07/21 22:28:31;;;;;;;21.23;4.78;;;;;;;;;;10387543;28;20097;-59
2022/07/21 22:33:31;;;;;;;8.32;3.95;;;;;;;;;;10390086;28;20042;-58
2022/07/21 22:38:32;;;;;;;14.10;4.35;;;;;;;;;;10385086;28;20034;-56
2022/07/21 22:43:33;;;;;;;9.15;4.80;;;;;;;;;;10384745;28;20022;-59
2022/07/21 22:48:34;;;;;;;9.18;4.38;;;;;;;;;;10383348;28;20124;-58
2022/07/21 22:53:34;;;;;;;11.18;4.53;;;;;;;;;;10379121;28;20033;-58
2022/07/21 22:58:35;;;;;;;10.25;4.22;;;;;;;;;;10386385;28;20036;-58
2022/07/21 23:03:36;;;;;;;8.07;4.10;;;;;;;;;;10378489;28;20047;-58
2022/07/21 23:08:36;;;;;;;8.48;4.85;;;;;;;;;;10386112;28;20022;-57
2022/07/21 23:13:37;;;;;;;6.00;3.92;;;;;;;;;;10383151;28;20029;-59
2022/07/21 23:18:38;;;;;;;5.78;3.92;;;;;;;;;;10379445;28;20033;-58
2022/07/21 23:23:38;;;;;;;10.77;4.10;;;;;;;;;;10383936;28;20124;-60
2022/07/21 23:28:39;;;;;;;11.55;3.88;;;;;;;;;;10379667;28;20025;-58
2022/07/21 23:33:39;;;;;;;8.43;4.07;;;;;;;;;;10385414;28;20125;-60
2022/07/21 23:38:40;;;;;;;9.55;4.15;;;;;;;;;;10376763;28;20040;-60
2022/07/21 23:43:41;;;;;;;9.63;4.38;;;;;;;;;;10405617;28;20030;-57
2022/07/21 23:48:41;;;;;;;10.43;3.58;;;;;;;;;;10408236;28;20261;-59
2022/07/21 23:53:42;;;;;;;9.20;3.72;;;;;;;;;;10404055;28;20037;-59
2022/07/21 23:58:42;;;;;;;8.73;3.88;;;;;;;;;;10408558;28;20025;-61
